createdAt,value
2019-05-12T00:02:17.875Z,100908.97
2019-05-12T00:05:05.429Z,100909.13
2019-05-12T00:18:20.269Z,100921.48
2019-05-12T00:21:08.774Z,100930.67
2019-05-12T00:23:54.804Z,100930.67
2019-05-12T00:26:41.223Z,100928.26
2019-05-12T00:29:28.742Z,100928.26
2019-05-12T00:34:48.209Z,100932.83
2019-05-12T00:37:34.609Z,100944.71
2019-05-12T00:40:21.046Z,100952.27
2019-05-12T00:43:08.777Z,100961.42
2019-05-12T00:45:55.455Z,100955.36
2019-05-12T00:48:42.319Z,100957.55
2019-05-12T00:51:29.033Z,100957.55
2019-05-12T00:54:17.701Z,100969.14
2019-05-12T00:57:03.520Z,100969.14
2019-05-12T00:59:49.940Z,100984.23
2019-05-12T01:02:37.989Z,100994.11
2019-05-12T01:07:58.744Z,100990.17
2019-05-12T01:13:31.627Z,100998.12
2019-05-12T01:19:04.541Z,101005.64
2019-05-12T01:21:32.150Z,101005.64
2019-05-12T01:24:03.581Z,101003.16
2019-05-12T01:26:31.281Z,101012.30
2019-05-12T01:28:58.917Z,101012.30
2019-05-12T01:31:28.971Z,101018.23
2019-05-12T01:33:58.596Z,101018.23
2019-05-12T01:36:28.624Z,101008.97
2019-05-12T01:39:15.174Z,101018.07
2019-05-12T01:42:01.621Z,101021.11
2019-05-12T01:44:48.244Z,101021.11
2019-05-12T01:47:38.191Z,101027.58
2019-05-12T01:50:08.783Z,101027.58
2019-05-12T01:52:35.838Z,101039.56
2019-05-12T01:58:08.916Z,101047.28
2019-05-12T02:03:29.390Z,101050.80
2019-05-12T02:08:50.450Z,101055.16
2019-05-12T02:11:37.991Z,101070.45
2019-05-12T02:16:58.241Z,101076.29
2019-05-12T02:19:48.006Z,101080.59
2019-05-12T02:22:16.074Z,101080.59
2019-05-12T02:25:02.525Z,101086.98
2019-05-12T02:27:48.964Z,101082.45
2019-05-12T02:30:19.215Z,101082.45
2019-05-12T02:32:53.076Z,101080.52
2019-05-12T02:35:16.241Z,101097.06
2019-05-12T02:37:45.348Z,101091.77
2019-05-12T02:40:15.094Z,101096.23
2019-05-12T02:42:46.255Z,101098.07
2019-05-12T02:45:35.135Z,101104.31
2019-05-12T02:48:01.297Z,101102.20
2019-05-12T02:50:29.023Z,101098.23
2019-05-12T02:52:56.594Z,101112.03
2019-05-12T02:55:45.073Z,101111.23
2019-05-12T02:58:15.312Z,101111.23
2019-05-12T03:00:45.560Z,101119.27
2019-05-12T03:03:31.232Z,101125.09
2019-05-12T03:05:58.994Z,101125.09
2019-05-12T03:08:26.635Z,101130.94
2019-05-12T03:11:14.769Z,101133.81
2019-05-12T03:13:44.830Z,101133.81
2019-05-12T03:16:14.700Z,101129.84
2019-05-12T03:18:41.036Z,101135.52
2019-05-12T03:21:27.482Z,101140.77
2019-05-12T03:23:55.370Z,101140.70
2019-05-12T03:26:24.958Z,101140.70
2019-05-12T03:29:14.521Z,101144.67
2019-05-12T03:31:59.743Z,101153.47
2019-05-12T03:34:47.635Z,101163.67
2019-05-12T03:37:17.719Z,101163.67
2019-05-12T03:42:17.491Z,101169.58
2019-05-12T03:44:56.735Z,101173.11
2019-05-12T03:47:35.553Z,101180.08
2019-05-12T03:50:24.386Z,101182.61
2019-05-12T03:53:25.719Z,101182.61
2019-05-12T03:55:42.353Z,101181.57
2019-05-12T03:58:09.345Z,101191.59
2019-05-12T04:00:56.048Z,101202.29
2019-05-12T04:03:45.112Z,101204.99
2019-05-12T04:06:15.117Z,101204.99
2019-05-12T04:08:54.987Z,101210.68
2019-05-12T04:11:29.362Z,101215.38
2019-05-12T04:13:57.137Z,101215.38
2019-05-12T04:16:27.604Z,101216.64
2019-05-12T04:19:14.767Z,101217.55
2019-05-12T04:21:44.627Z,101217.55
2019-05-12T04:24:14.298Z,101221.69
2019-05-12T04:27:01.107Z,101221.91
2019-05-12T04:29:28.833Z,101221.91
2019-05-12T04:31:58.220Z,101230.42
2019-05-12T04:34:44.847Z,101231.30
2019-05-12T04:37:14.885Z,101238.64
2019-05-12T04:39:44.708Z,101239.96
2019-05-12T04:42:14.710Z,101243.52
2019-05-12T04:44:41.198Z,101258.08
2019-05-12T04:47:08.983Z,101255.92
2019-05-12T04:49:55.378Z,101263.11
2019-05-12T04:52:24.862Z,101263.11
2019-05-12T04:54:55.200Z,101270.61
2019-05-12T04:57:21.736Z,101270.61
2019-05-12T05:00:08.091Z,101278.95
2019-05-12T05:02:54.573Z,101285.70
2019-05-12T05:05:24.856Z,101285.70
2019-05-12T05:07:54.837Z,101292.77
2019-05-12T05:10:24.913Z,101297.64
2019-05-12T05:12:54.347Z,101306.88
2019-05-12T05:15:40.848Z,101311.45
2019-05-12T05:21:14.117Z,101327.48
2019-05-12T05:23:44.296Z,101327.48
2019-05-12T05:26:24.355Z,101337.48
2019-05-12T05:29:04.481Z,101338.78
2019-05-12T05:31:53.398Z,101346.56
2019-05-12T05:36:59.478Z,101345.02
2019-05-12T05:39:24.345Z,101349.16
2019-05-12T05:42:13.517Z,101353.75
2019-05-12T05:47:14.078Z,101368.75
2019-05-12T05:50:00.501Z,101367.16
2019-05-12T05:52:33.450Z,101367.16
2019-05-12T05:54:57.447Z,101369.95
2019-05-12T05:57:28.522Z,101372.87
2019-05-12T06:00:21.726Z,101370.12
2019-05-12T06:02:44.146Z,101367.22
2019-05-12T06:05:31.077Z,101369.17
2019-05-12T06:08:00.116Z,101370.78
2019-05-12T06:10:35.245Z,101376.41
2019-05-12T06:12:57.929Z,101379.20
2019-05-12T06:15:29.748Z,101375.41
2019-05-12T06:17:57.299Z,101376.58
2019-05-12T06:20:43.917Z,101374.73
2019-05-12T06:23:14.791Z,101374.73
2019-05-12T06:26:03.952Z,101379.91
2019-05-12T06:31:29.633Z,101387.36
2019-05-12T06:37:05.045Z,101392.98
2019-05-12T06:39:28.459Z,101399.49
2019-05-12T06:42:17.036Z,101399.77
2019-05-12T06:44:48.812Z,101399.77
2019-05-12T06:47:34.393Z,101412.75
2019-05-12T06:50:20.357Z,101412.73
2019-05-12T06:53:06.762Z,101412.73
2019-05-12T06:55:54.092Z,101416.19
2019-05-12T06:58:27.551Z,101418.41
2019-05-12T07:01:16.689Z,101419.37
2019-05-12T07:04:00.551Z,101419.37
2019-05-12T07:06:28.447Z,101418.63
2019-05-12T07:09:24.197Z,101407.53
2019-05-12T07:12:06.976Z,101416.70
2019-05-12T07:14:55.641Z,101423.92
2019-05-12T07:20:29.343Z,101429.48
2019-05-12T07:22:56.919Z,101433.49
2019-05-12T07:25:44.504Z,101430.97
2019-05-12T07:28:14.391Z,101435.53
2019-05-12T07:30:44.099Z,101435.81
2019-05-12T07:33:14.336Z,101442.92
2019-05-12T07:35:44.666Z,101442.92
2019-05-12T07:38:20.555Z,101449.25
2019-05-12T07:40:41.501Z,101456.09
2019-05-12T07:43:16.239Z,101456.09
2019-05-12T07:45:38.731Z,101459.09
2019-05-12T07:48:10.179Z,101465.23
2019-05-12T07:50:37.171Z,101456.41
2019-05-12T07:53:13.779Z,101456.41
2019-05-12T07:55:47.570Z,101457.83
2019-05-12T07:58:29.265Z,101457.83
2019-05-12T08:01:02.459Z,101456.95
2019-05-12T08:03:44.983Z,101456.86
2019-05-12T08:06:14.209Z,101456.86
2019-05-12T08:09:00.832Z,101458.90
2019-05-12T08:14:27.661Z,101458.77
2019-05-12T08:17:12.185Z,101456.61
2019-05-12T08:19:56.792Z,101456.61
2019-05-12T08:25:18.908Z,101466.28
2019-05-12T08:30:52.065Z,101470.30
2019-05-12T08:33:34.671Z,101470.80
2019-05-12T08:36:24.253Z,101470.80
2019-05-12T08:38:53.659Z,101465.77
2019-05-12T08:41:40.068Z,101483.73
2019-05-12T08:44:09.355Z,101483.73
2019-05-12T08:49:51.134Z,101499.09
2019-05-12T08:52:36.289Z,101499.09
2019-05-12T08:54:59.896Z,101492.42
2019-05-12T08:57:49.344Z,101497.39
2019-05-12T09:00:15.553Z,101494.03
2019-05-12T09:03:03.556Z,101486.17
2019-05-12T09:08:55.202Z,101492.30
2019-05-12T09:11:24.287Z,101497.55
2019-05-12T09:14:10.919Z,101490.98
2019-05-12T09:16:38.642Z,101482.09
2019-05-12T09:19:27.243Z,101494.61
2019-05-12T09:22:16.844Z,101493.50
2019-05-12T09:25:06.341Z,101493.50
2019-05-12T09:27:30.947Z,101498.75
2019-05-12T09:30:17.363Z,101503.54
2019-05-12T09:35:39.210Z,101506.16
2019-05-12T09:41:20.431Z,101512.54
2019-05-12T09:43:50.278Z,101512.54
2019-05-12T09:46:37.467Z,101497.28
2019-05-12T09:52:05.011Z,101492.27
2019-05-12T09:54:35.532Z,101492.27
2019-05-12T09:57:04.406Z,101488.13
2019-05-12T09:59:33.609Z,101490.89
2019-05-12T10:05:06.627Z,101499.42
2019-05-12T10:07:34.615Z,101498.57
2019-05-12T10:10:03.684Z,101498.57
2019-05-12T10:12:38.644Z,101506.67
2019-05-12T10:15:04.317Z,101503.84
2019-05-12T10:17:33.991Z,101495.89
2019-05-12T10:20:01.321Z,101513.52
2019-05-12T10:22:47.262Z,101523.62
2019-05-12T10:25:14.910Z,101524.72
2019-05-12T10:27:45.726Z,101520.34
2019-05-12T10:30:17.104Z,101520.34
2019-05-12T10:32:43.669Z,101503.39
2019-05-12T10:35:20.529Z,101511.87
2019-05-12T10:37:44.400Z,101511.47
2019-05-12T10:40:13.996Z,101523.31
2019-05-12T10:42:46.003Z,101524.09
2019-05-12T10:45:18.969Z,101524.09
2019-05-12T10:47:40.595Z,101528.34
2019-05-12T10:50:08.674Z,101534.35
2019-05-12T10:52:38.924Z,101534.35
2019-05-12T10:55:05.596Z,101522.08
2019-05-12T10:57:33.910Z,101522.08
2019-05-12T11:00:03.972Z,101519.09
2019-05-12T11:02:30.760Z,101518.13
2019-05-12T11:04:58.710Z,101517.53
2019-05-12T11:07:28.127Z,101523.31
2019-05-12T11:10:13.565Z,101533.42
2019-05-12T11:12:33.365Z,101536.80
2019-05-12T11:15:08.532Z,101549.02
2019-05-12T11:17:54.136Z,101550.19
2019-05-12T11:20:21.950Z,101534.38
2019-05-12T11:22:54.219Z,101530.41
2019-05-12T11:25:21.698Z,101526.99
2019-05-12T11:27:49.306Z,101536.13
2019-05-12T11:30:18.965Z,101536.13
2019-05-12T11:32:46.576Z,101554.98
2019-05-12T11:35:14.407Z,101554.98
2019-05-12T11:37:42.192Z,101551.66
2019-05-12T11:40:09.898Z,101548.95
2019-05-12T11:42:37.567Z,101545.05
2019-05-12T11:45:05.622Z,101547.29
2019-05-12T11:47:34.630Z,101539.39
2019-05-12T11:50:09.781Z,101539.19
2019-05-12T11:52:34.237Z,101538.80
2019-05-12T11:55:01.836Z,101543.11
2019-05-12T11:57:31.134Z,101543.11
2019-05-12T12:00:01.988Z,101553.72
2019-05-12T12:02:30.364Z,101538.02
2019-05-12T12:04:58.094Z,101543.77
2019-05-12T12:07:26.091Z,101536.77
2019-05-12T12:09:56.128Z,101543.69
2019-05-12T12:12:49.109Z,101546.18
2019-05-12T12:14:54.037Z,101557.34
2019-05-12T12:17:22.829Z,101560.87
2019-05-12T12:19:50.799Z,101564.48
2019-05-12T12:22:20.489Z,101562.08
2019-05-12T12:24:48.053Z,101574.36
2019-05-12T12:27:15.704Z,101579.13
2019-05-12T12:29:44.039Z,101572.86
2019-05-12T12:32:20.268Z,101586.18
2019-05-12T12:34:45.722Z,101586.18
2019-05-12T12:37:24.119Z,101585.94
2019-05-12T12:39:50.394Z,101585.62
2019-05-12T12:42:21.085Z,101585.62
2019-05-12T12:44:53.497Z,101582.77
2019-05-12T12:47:18.473Z,101575.39
2019-05-12T12:49:49.272Z,101565.15
2019-05-12T12:52:15.781Z,101565.15
2019-05-12T12:54:45.665Z,101574.59
2019-05-12T12:57:13.819Z,101585.69
2019-05-12T12:59:45.375Z,101585.69
2019-05-12T13:02:11.235Z,101586.94
2019-05-12T13:04:39.717Z,101594.20
2019-05-12T13:07:08.392Z,101589.92
2019-05-12T13:09:38.450Z,101578.98
2019-05-12T13:12:14.188Z,101575.53
2019-05-12T13:14:44.219Z,101574.48
2019-05-12T13:17:11.005Z,101577.73
2019-05-12T13:19:38.709Z,101577.73
2019-05-12T13:22:14.989Z,101568.78
2019-05-12T13:24:38.736Z,101565.63
2019-05-12T13:27:06.464Z,101565.63
2019-05-12T13:29:39.527Z,101576.45
2019-05-12T13:32:03.601Z,101576.45
2019-05-12T13:34:34.751Z,101583.27
2019-05-12T13:37:00.860Z,101582.63
2019-05-12T13:39:28.409Z,101582.63
2019-05-12T13:42:00.104Z,101582.72
2019-05-12T13:44:30.274Z,101578.17
2019-05-12T13:47:00.114Z,101590.05
2019-05-12T13:49:36.199Z,101576.85
2019-05-12T13:52:04.079Z,101569.47
2019-05-12T13:54:30.473Z,101569.47
2019-05-12T13:57:03.726Z,101570.62
2019-05-12T13:59:30.352Z,101574.47
2019-05-12T14:01:58.426Z,101583.12
2019-05-12T14:04:27.708Z,101586.43
2019-05-12T14:06:55.338Z,101585.92
2019-05-12T14:09:23.874Z,101591.70
2019-05-12T14:11:53.714Z,101591.70
2019-05-12T14:14:20.753Z,101596.61
2019-05-12T14:16:57.040Z,101608.16
2019-05-12T14:19:23.417Z,101607.28
2019-05-12T14:21:57.499Z,101603.61
2019-05-12T14:24:25.061Z,101600.90
2019-05-12T14:26:59.734Z,101612.14
2019-05-12T14:29:30.497Z,101610.83
2019-05-12T14:32:02.404Z,101633.63
2019-05-12T14:34:26.794Z,101633.63
2019-05-12T14:37:05.562Z,101629.81
2019-05-12T14:39:31.139Z,101633.91
2019-05-12T14:41:59.183Z,101624.92
2019-05-12T14:44:28.140Z,101633.46
2019-05-12T14:47:05.205Z,101623.47
2019-05-12T14:49:33.358Z,101618.05
2019-05-12T14:52:03.261Z,101612.62
2019-05-12T14:54:30.607Z,101606.80
2019-05-12T14:57:03.384Z,101613.09
2019-05-12T14:59:36.596Z,101613.09
2019-05-12T15:02:03.132Z,101606.73
2019-05-12T15:04:30.039Z,101606.73
2019-05-12T15:06:59.782Z,101604.64
2019-05-12T15:09:31.161Z,101596.70
2019-05-12T15:11:59.062Z,101596.22
2019-05-12T15:14:32.487Z,101596.20
2019-05-12T15:17:00.080Z,101595.41
2019-05-12T15:19:29.812Z,101594.50
2019-05-12T15:22:01.561Z,101606.09
2019-05-12T15:24:28.654Z,101595.01
2019-05-12T15:27:00.466Z,101606.55
2019-05-12T15:29:26.106Z,101606.55
2019-05-12T15:31:56.704Z,101613.17
2019-05-12T15:34:23.801Z,101615.12
2019-05-12T15:36:56.000Z,101633.27
2019-05-12T15:39:21.132Z,101629.95
2019-05-12T15:41:51.097Z,101634.44
2019-05-12T15:44:24.863Z,101634.44
2019-05-12T15:46:49.421Z,101647.92
2019-05-12T15:49:18.017Z,101641.10
2019-05-12T15:51:54.259Z,101649.34
2019-05-12T15:54:19.881Z,101649.34
2019-05-12T15:56:47.463Z,101652.98
2019-05-12T15:59:17.438Z,101666.81
2019-05-12T16:01:44.648Z,101669.88
2019-05-12T16:04:15.510Z,101669.88
2019-05-12T16:06:52.896Z,101678.52
2019-05-12T16:09:14.130Z,101678.52
2019-05-12T16:11:52.075Z,101676.16
2019-05-12T16:14:19.610Z,101677.59
2019-05-12T16:16:50.106Z,101675.14
2019-05-12T16:19:26.567Z,101654.31
2019-05-12T16:21:54.153Z,101654.31
2019-05-12T16:24:23.637Z,101653.42
2019-05-12T16:26:56.717Z,101647.31
2019-05-12T16:29:45.435Z,101644.13
2019-05-12T16:32:47.519Z,101644.13
2019-05-12T16:35:06.884Z,101646.28
2019-05-12T16:37:50.453Z,101648.88
2019-05-12T16:40:51.319Z,101651.50
2019-05-12T16:43:29.235Z,101659.20
2019-05-12T16:46:15.419Z,101667.80
2019-05-12T16:49:03.344Z,101667.80
2019-05-12T16:51:43.739Z,101675.31
2019-05-12T16:54:19.543Z,101679.80
2019-05-12T16:57:29.189Z,101679.80
2019-05-12T17:00:02.482Z,101676.97
2019-05-12T17:03:05.831Z,101685.26
2019-05-12T17:05:45.069Z,101683.14
2019-05-12T17:08:00.312Z,101681.52
2019-05-12T17:10:58.323Z,101690.73
2019-05-12T17:13:16.195Z,101690.73
2019-05-12T17:16:04.451Z,101700.84
2019-05-12T17:21:25.457Z,101704.12
2019-05-12T17:23:53.165Z,101705.83
2019-05-12T17:26:41.163Z,101711.42
2019-05-12T17:29:08.870Z,101705.77
2019-05-12T17:31:36.660Z,101707.22
2019-05-12T17:44:46.612Z,101726.78
2019-05-12T17:50:19.468Z,101729.94
2019-05-12T17:58:47.363Z,101734.67
2019-05-12T18:01:14.330Z,101732.39
2019-05-12T18:04:04.324Z,101732.39
2019-05-12T18:06:34.080Z,101730.03
2019-05-12T18:09:20.328Z,101730.03
2019-05-12T18:14:46.754Z,101744.44
2019-05-12T18:17:09.359Z,101744.44
2019-05-12T18:19:36.980Z,101749.22
2019-05-12T18:22:23.635Z,101749.15
2019-05-12T18:25:11.411Z,101759.02
2019-05-12T18:27:57.768Z,101760.07
2019-05-12T18:33:29.593Z,101760.94
2019-05-12T18:36:06.017Z,101763.67
2019-05-12T18:38:56.226Z,101766.70
2019-05-12T18:44:31.096Z,101773.02
2019-05-12T18:46:57.071Z,101773.02
2019-05-12T18:49:24.818Z,101777.47
2019-05-12T18:52:11.289Z,101771.25
2019-05-12T18:54:57.141Z,101777.91
2019-05-12T18:57:44.927Z,101785.13
2019-05-12T19:00:01.518Z,101777.72
2019-05-12T19:02:46.225Z,101788.09
2019-05-12T19:05:21.961Z,101788.09
2019-05-12T19:10:51.633Z,101794.10
2019-05-12T19:13:19.016Z,101794.10
2019-05-12T19:16:07.316Z,101805.55
2019-05-12T19:18:37.319Z,101805.55
2019-05-12T19:21:23.647Z,101805.95
2019-05-12T19:24:17.480Z,101809.53
2019-05-12T19:27:18.968Z,101818.88
2019-05-12T19:32:36.849Z,101814.42
2019-05-12T19:35:20.299Z,101825.09
2019-05-12T19:37:53.821Z,101839.94
2019-05-12T19:43:28.152Z,101847.16
2019-05-12T19:46:14.589Z,101846.53
2019-05-12T19:50:07.220Z,101846.53
2019-05-12T19:54:38.322Z,101852.47
2019-05-12T19:57:26.409Z,101859.91
2019-05-12T20:00:25.351Z,101859.91
2019-05-12T20:05:35.212Z,101864.30
2019-05-12T20:11:03.618Z,101865.42
2019-05-12T20:13:50.064Z,101864.95
2019-05-12T20:16:36.515Z,101864.95
2019-05-12T20:22:13.805Z,101874.45
2019-05-12T20:24:41.331Z,101881.49
2019-05-12T20:27:27.712Z,101889.89
2019-05-12T20:32:47.481Z,101891.37
2019-05-12T20:35:33.918Z,101898.23
2019-05-12T20:38:25.392Z,101896.42
2019-05-12T20:43:55.006Z,101900.70
2019-05-12T20:46:15.466Z,101902.75
2019-05-12T20:49:01.066Z,101909.44
2019-05-12T20:51:27.791Z,101912.32
2019-05-12T20:54:18.090Z,101915.27
2019-05-12T20:56:43.574Z,101915.27
2019-05-12T20:59:34.213Z,101916.03
2019-05-12T21:02:03.636Z,101921.58
2019-05-12T21:05:00.537Z,101923.80
2019-05-12T21:07:22.148Z,101927.67
2019-05-12T21:09:49.337Z,101934.17
2019-05-12T21:12:40.090Z,101934.05
2019-05-12T21:15:55.174Z,101945.39
2019-05-12T21:18:15.811Z,101945.39
2019-05-12T21:21:03.538Z,101949.66
2019-05-12T21:23:53.869Z,101949.66
2019-05-12T21:26:19.962Z,101954.11
2019-05-12T21:29:06.325Z,101963.67
2019-05-12T21:31:53.156Z,101964.12
2019-05-12T21:34:57.812Z,101964.12
2019-05-12T21:37:10.399Z,101969.78
2019-05-12T21:39:56.850Z,101970.17
2019-05-12T21:42:44.639Z,101980.14
2019-05-12T21:45:31.396Z,101980.14
2019-05-12T21:48:23.531Z,101983.02
2019-05-12T21:51:09.773Z,101983.02
2019-05-12T21:53:56.189Z,101987.69
2019-05-12T21:56:44.892Z,101990.44
2019-05-12T21:59:13.391Z,101990.44
2019-05-12T22:01:43.184Z,101979.25
2019-05-12T22:04:10.374Z,101981.20
2019-05-12T22:06:57.458Z,101986.34
2019-05-12T22:09:47.052Z,101988.59
2019-05-12T22:15:21.442Z,101990.91
2019-05-12T22:18:07.861Z,101994.09
2019-05-12T22:23:11.843Z,102002.67
2019-05-12T22:25:43.553Z,102005.10
2019-05-12T22:28:13.258Z,102010.01
2019-05-12T22:30:40.758Z,102010.01
2019-05-12T22:33:27.187Z,102015.70
2019-05-12T22:36:26.830Z,102015.70
2019-05-12T22:41:41.933Z,102032.47
2019-05-12T22:44:28.378Z,102033.03
2019-05-12T22:46:55.991Z,102033.03
2019-05-12T22:49:44.256Z,102036.86
2019-05-12T22:52:13.646Z,102036.86
2019-05-12T22:57:39.935Z,102039.11
2019-05-12T23:02:45.683Z,102040.16
2019-05-12T23:05:32.381Z,102042.48
2019-05-12T23:08:21.560Z,102037.55
2019-05-12T23:11:07.981Z,102048.88
2019-05-12T23:13:40.889Z,102048.88
2019-05-12T23:19:01.434Z,102046.63
2019-05-12T23:21:49.285Z,102053.70
2019-05-12T23:24:39.210Z,102049.36
2019-05-12T23:27:25.227Z,102049.36
2019-05-12T23:29:53.256Z,102049.07
2019-05-12T23:34:58.713Z,102048.62
2019-05-12T23:37:45.244Z,102054.91
2019-05-12T23:40:34.260Z,102048.95
2019-05-12T23:43:19.970Z,102053.59
2019-05-12T23:51:16.985Z,102052.56
2019-05-12T23:54:03.928Z,102059.22
2019-05-12T23:59:20.271Z,102065.06
